createdAt,value
2022-12-18T00:01:24.105Z,17.67
2022-12-18T00:03:52.964Z,16.93
2022-12-18T00:06:20.560Z,16.03
2022-12-18T00:08:47.217Z,15.97
2022-12-18T00:11:20.745Z,16.67
2022-12-18T00:13:47.941Z,17.37
2022-12-18T00:16:20.576Z,17.20
2022-12-18T00:18:52.170Z,16.67
2022-12-18T00:21:19.867Z,17.70
2022-12-18T00:23:48.523Z,17.10
2022-12-18T00:26:22.098Z,16.40
2022-12-18T00:28:50.296Z,16.83
2022-12-18T00:31:21.084Z,17.10
2022-12-18T00:33:47.992Z,16.77
2022-12-18T00:36:22.821Z,16.30
2022-12-18T00:38:50.926Z,16.90
2022-12-18T00:41:38.731Z,16.50
2022-12-18T00:44:07.817Z,16.83
2022-12-18T00:46:34.258Z,17.87
2022-12-18T00:49:00.452Z,17.50
2022-12-18T00:51:27.202Z,17.60
2022-12-18T00:53:54.047Z,18.27
2022-12-18T00:56:23.569Z,17.60
2022-12-18T00:58:49.919Z,18.43
2022-12-18T01:01:17.204Z,17.83
2022-12-18T01:03:45.329Z,17.53
2022-12-18T01:06:14.516Z,17.93
2022-12-18T01:08:40.837Z,17.43
2022-12-18T01:11:17.305Z,18.30
2022-12-18T01:13:44.142Z,16.33
2022-12-18T01:16:17.388Z,18.10
2022-12-18T01:18:43.544Z,17.03
2022-12-18T01:21:13.588Z,17.30
2022-12-18T01:23:40.376Z,18.37
2022-12-18T01:26:13.599Z,17.23
2022-12-18T01:28:40.998Z,18.60
2022-12-18T01:31:27.305Z,17.03
2022-12-18T01:33:56.148Z,17.07
2022-12-18T01:36:29.227Z,17.57
2022-12-18T01:38:56.127Z,18.27
2022-12-18T01:41:47.640Z,18.30
2022-12-18T01:45:23.028Z,18.50
2022-12-18T01:48:03.587Z,17.30
2022-12-18T01:50:40.180Z,18.00
2022-12-18T01:53:20.955Z,17.13
2022-12-18T01:55:54.978Z,19.73
2022-12-18T01:58:50.050Z,18.70
2022-12-18T02:01:16.907Z,17.97
2022-12-18T02:03:44.482Z,18.07
2022-12-18T02:06:19.782Z,17.97
2022-12-18T02:09:12.659Z,17.60
2022-12-18T02:12:03.659Z,17.50
2022-12-18T02:14:43.172Z,18.47
2022-12-18T02:17:21.150Z,19.00
2022-12-18T02:20:24.644Z,18.07
2022-12-18T02:22:59.975Z,17.80
2022-12-18T02:26:42.350Z,18.77
2022-12-18T02:29:34.525Z,18.43
2022-12-18T02:32:07.604Z,18.80
2022-12-18T02:34:40.240Z,19.30
2022-12-18T02:37:16.358Z,18.00
2022-12-18T02:39:46.297Z,18.10
2022-12-18T02:42:14.123Z,19.40
2022-12-18T02:44:50.241Z,18.07
2022-12-18T02:47:24.344Z,19.97
2022-12-18T02:50:21.455Z,18.57
2022-12-18T02:53:26.518Z,18.90
2022-12-18T02:56:22.534Z,20.37
2022-12-18T02:59:04.997Z,18.50
2022-12-18T03:01:54.957Z,19.13
2022-12-18T03:04:36.009Z,20.10
2022-12-18T03:07:14.798Z,20.23
2022-12-18T03:09:49.493Z,20.37
2022-12-18T03:12:31.522Z,20.93
2022-12-18T03:15:18.168Z,19.37
2022-12-18T03:17:58.042Z,21.47
2022-12-18T03:20:30.582Z,20.83
2022-12-18T03:23:09.575Z,20.27
2022-12-18T03:25:42.865Z,19.90
2022-12-18T03:28:16.162Z,20.67
2022-12-18T03:30:47.082Z,20.50
2022-12-18T03:33:24.358Z,19.77
2022-12-18T03:35:51.885Z,18.30
2022-12-18T03:38:18.953Z,19.00
2022-12-18T03:41:07.788Z,18.73
2022-12-18T03:44:15.093Z,18.63
2022-12-18T03:46:55.043Z,18.77
2022-12-18T03:50:06.065Z,18.70
2022-12-18T03:53:00.355Z,19.40
2022-12-18T03:55:33.837Z,19.27
2022-12-18T03:58:06.117Z,19.13
2022-12-18T04:00:44.326Z,19.83
2022-12-18T04:03:13.845Z,20.00
2022-12-18T04:05:48.109Z,18.73
2022-12-18T04:08:15.367Z,18.63
2022-12-18T04:10:49.007Z,18.30
2022-12-18T04:13:34.218Z,19.47
2022-12-18T04:16:02.569Z,19.00
2022-12-18T04:18:28.839Z,19.73
2022-12-18T04:20:55.354Z,18.57
2022-12-18T04:23:22.521Z,18.60
2022-12-18T04:25:49.328Z,18.60
2022-12-18T04:28:22.955Z,17.87
2022-12-18T04:30:49.831Z,19.77
2022-12-18T04:33:16.622Z,17.73
2022-12-18T04:35:43.039Z,18.00
2022-12-18T04:38:10.090Z,19.23
2022-12-18T04:40:37.758Z,18.03
2022-12-18T04:43:09.489Z,19.70
2022-12-18T04:45:35.782Z,18.93
2022-12-18T04:48:03.465Z,17.83
2022-12-18T04:50:30.203Z,18.93
2022-12-18T04:52:57.086Z,19.67
2022-12-18T04:55:23.332Z,17.67
2022-12-18T04:57:49.673Z,19.43
2022-12-18T05:00:16.138Z,19.00
2022-12-18T05:02:42.519Z,19.43
2022-12-18T05:05:09.859Z,19.60
2022-12-18T05:07:36.182Z,21.53
2022-12-18T05:10:03.333Z,18.87
2022-12-18T05:12:31.306Z,18.37
2022-12-18T05:14:57.417Z,19.83
2022-12-18T05:17:23.515Z,19.93
2022-12-18T05:19:49.668Z,19.50
2022-12-18T05:22:15.775Z,18.77
2022-12-18T05:24:41.906Z,20.03
2022-12-18T05:27:08.014Z,19.87
2022-12-18T05:29:34.124Z,18.53
2022-12-18T05:32:00.234Z,18.77
2022-12-18T05:34:26.413Z,18.47
2022-12-18T05:36:52.520Z,19.13
2022-12-18T05:39:18.629Z,19.33
2022-12-18T05:41:44.728Z,19.07
2022-12-18T05:44:10.825Z,18.53
2022-12-18T05:46:37.008Z,19.07
2022-12-18T05:49:03.297Z,19.30
2022-12-18T05:51:29.389Z,18.90
2022-12-18T05:53:55.657Z,17.77
2022-12-18T05:56:23.214Z,19.27
2022-12-18T05:58:53.896Z,18.33
2022-12-18T06:01:25.217Z,18.93
2022-12-18T06:03:51.573Z,18.97
2022-12-18T06:06:19.898Z,18.23
2022-12-18T06:08:47.049Z,18.40
2022-12-18T06:11:16.498Z,18.70
2022-12-18T06:13:42.783Z,17.77
2022-12-18T06:16:09.195Z,18.53
2022-12-18T06:18:38.465Z,18.60
2022-12-18T06:21:04.738Z,18.03
2022-12-18T06:23:30.828Z,18.17
2022-12-18T06:25:56.960Z,17.97
2022-12-18T06:28:23.065Z,18.20
2022-12-18T06:30:49.914Z,18.33
2022-12-18T06:33:17.167Z,17.73
2022-12-18T06:35:43.321Z,16.70
2022-12-18T06:38:09.434Z,16.63
2022-12-18T06:40:39.390Z,16.10
2022-12-18T06:43:06.339Z,16.20
2022-12-18T06:45:32.485Z,16.50
2022-12-18T06:47:58.609Z,15.63
2022-12-18T06:50:25.441Z,15.57
2022-12-18T06:52:51.600Z,15.47
2022-12-18T06:55:18.143Z,15.83
2022-12-18T06:57:44.267Z,15.20
2022-12-18T07:00:11.091Z,15.00
2022-12-18T07:02:37.322Z,14.90
2022-12-18T07:05:10.246Z,14.03
2022-12-18T07:07:37.058Z,13.67
2022-12-18T07:10:03.740Z,13.97
2022-12-18T07:12:29.947Z,13.50
2022-12-18T07:14:56.108Z,13.50
2022-12-18T07:17:22.209Z,13.10
2022-12-18T07:19:48.303Z,14.30
2022-12-18T07:22:14.434Z,13.63
2022-12-18T07:24:40.597Z,13.70
2022-12-18T07:27:06.720Z,13.17
2022-12-18T07:29:34.195Z,14.37
2022-12-18T07:32:00.391Z,13.40
2022-12-18T07:34:26.554Z,13.67
2022-12-18T07:36:52.671Z,14.13
2022-12-18T07:39:18.788Z,15.50
2022-12-18T07:42:04.817Z,15.27
2022-12-18T07:44:32.638Z,16.33
2022-12-18T07:46:58.759Z,14.97
2022-12-18T07:49:24.854Z,14.77
2022-12-18T07:51:50.993Z,15.50
2022-12-18T07:54:17.122Z,15.80
2022-12-18T07:56:43.236Z,15.07
2022-12-18T07:59:09.414Z,14.03
2022-12-18T08:01:36.025Z,14.40
2022-12-18T08:04:02.261Z,13.63
2022-12-18T08:06:28.353Z,13.73
2022-12-18T08:08:56.123Z,13.77
2022-12-18T08:11:25.432Z,15.07
2022-12-18T08:13:52.052Z,13.63
2022-12-18T08:16:19.544Z,13.63
2022-12-18T08:18:46.360Z,13.57
2022-12-18T08:21:17.046Z,14.50
2022-12-18T08:23:43.844Z,13.70
2022-12-18T08:26:11.889Z,14.10
2022-12-18T08:28:38.456Z,14.27
2022-12-18T08:31:05.126Z,14.50
2022-12-18T08:33:31.693Z,15.20
2022-12-18T08:36:00.146Z,14.47
2022-12-18T08:38:26.686Z,13.00
2022-12-18T08:41:07.080Z,14.23
2022-12-18T08:43:52.040Z,14.40
2022-12-18T08:46:20.681Z,13.53
2022-12-18T08:48:47.278Z,14.93
2022-12-18T08:51:15.761Z,15.40
2022-12-18T08:53:42.773Z,15.67
2022-12-18T08:56:09.138Z,15.27
2022-12-18T08:58:35.252Z,15.40
2022-12-18T09:01:03.479Z,15.10
2022-12-18T09:03:29.816Z,17.03
2022-12-18T09:05:56.027Z,15.30
2022-12-18T09:08:22.145Z,15.13
2022-12-18T09:10:50.419Z,20.63
2022-12-18T09:13:17.847Z,26.27
2022-12-18T09:15:55.439Z,20.87
2022-12-18T09:18:23.777Z,15.83
2022-12-18T09:20:51.988Z,17.03
2022-12-18T09:23:18.353Z,16.50
2022-12-18T09:25:44.809Z,15.37
2022-12-18T09:28:17.547Z,15.63
2022-12-18T09:30:49.389Z,18.13
2022-12-18T09:33:17.020Z,14.97
2022-12-18T09:35:45.934Z,16.17
2022-12-18T09:38:16.261Z,19.03
2022-12-18T09:41:16.123Z,15.83
2022-12-18T09:43:55.654Z,15.47
2022-12-18T09:46:33.133Z,13.93
2022-12-18T09:49:06.380Z,13.23
2022-12-18T09:51:42.767Z,13.70
2022-12-18T09:54:29.614Z,14.10
2022-12-18T09:56:55.730Z,15.07
2022-12-18T09:59:30.868Z,15.73
2022-12-18T10:01:57.431Z,19.10
2022-12-18T10:04:24.775Z,24.03
2022-12-18T10:07:09.824Z,29.40
2022-12-18T10:10:04.639Z,27.30
2022-12-18T10:12:49.187Z,24.13
2022-12-18T10:16:17.878Z,28.13
2022-12-18T10:19:13.184Z,19.57
2022-12-18T10:22:11.323Z,18.70
2022-12-18T10:24:54.824Z,22.90
2022-12-18T10:27:27.025Z,21.63
2022-12-18T10:29:54.507Z,18.47
2022-12-18T10:32:28.677Z,16.53
2022-12-18T10:35:00.495Z,15.50
2022-12-18T10:37:30.055Z,16.60
2022-12-18T10:40:21.857Z,14.53
2022-12-18T10:43:12.753Z,13.53
2022-12-18T10:45:39.667Z,13.13
2022-12-18T10:48:19.782Z,14.70
2022-12-18T10:53:37.781Z,13.13
2022-12-18T10:56:06.640Z,15.53
2022-12-18T10:58:36.831Z,14.87
2022-12-18T11:01:16.001Z,14.47
2022-12-18T11:04:02.487Z,14.33
2022-12-18T11:06:33.169Z,13.70
2022-12-18T11:09:08.008Z,15.27
2022-12-18T11:11:38.847Z,16.90
2022-12-18T11:14:18.191Z,14.07
2022-12-18T11:17:23.881Z,14.97
2022-12-18T11:19:38.999Z,14.63
2022-12-18T11:22:23.226Z,13.07
2022-12-18T11:28:25.665Z,13.73
2022-12-18T11:31:24.002Z,12.10
2022-12-18T11:34:28.093Z,12.90
2022-12-18T11:36:48.164Z,12.70
2022-12-18T11:39:38.796Z,15.80
2022-12-18T11:42:37.760Z,12.20
2022-12-18T11:45:15.526Z,13.90
2022-12-18T11:48:09.287Z,12.97
2022-12-18T11:50:36.785Z,16.53
2022-12-18T11:53:06.177Z,14.60
2022-12-18T11:55:50.812Z,14.37
2022-12-18T11:58:53.943Z,15.37
2022-12-18T12:01:55.423Z,15.57
2022-12-18T12:04:58.888Z,14.30
2022-12-18T12:07:36.749Z,13.90
2022-12-18T12:10:23.801Z,15.40
2022-12-18T12:13:23.975Z,14.63
2022-12-18T12:16:04.035Z,14.00
2022-12-18T12:18:53.444Z,13.50
2022-12-18T12:21:28.817Z,14.13
2022-12-18T12:24:11.677Z,20.07
2022-12-18T12:27:15.307Z,15.97
2022-12-18T12:30:20.750Z,14.03
2022-12-18T12:33:13.412Z,15.00
2022-12-18T12:36:22.962Z,14.77
2022-12-18T12:38:58.418Z,15.77
2022-12-18T12:41:49.759Z,14.03
2022-12-18T12:44:25.572Z,18.83
2022-12-18T12:46:55.309Z,14.47
2022-12-18T12:49:27.890Z,16.43
2022-12-18T12:52:11.057Z,14.23
2022-12-18T12:54:38.938Z,15.37
2022-12-18T12:57:33.868Z,16.50
2022-12-18T13:00:13.163Z,15.60
2022-12-18T13:03:12.670Z,17.57
2022-12-18T13:05:51.591Z,17.17
2022-12-18T13:08:28.789Z,17.00
2022-12-18T13:11:19.718Z,15.83
2022-12-18T13:13:56.264Z,15.37
2022-12-18T13:16:27.739Z,25.87
2022-12-18T13:18:58.044Z,19.93
2022-12-18T13:21:32.586Z,19.70
2022-12-18T13:24:35.563Z,18.10
2022-12-18T13:27:40.371Z,21.07
2022-12-18T13:30:31.622Z,20.40
2022-12-18T13:33:18.734Z,20.57
2022-12-18T13:36:09.764Z,18.07
2022-12-18T13:38:39.335Z,19.50
2022-12-18T13:41:28.422Z,19.97
2022-12-18T13:43:59.387Z,20.57
2022-12-18T13:46:47.822Z,18.03
2022-12-18T13:49:13.825Z,17.80
2022-12-18T13:51:47.903Z,21.67
2022-12-18T13:54:39.244Z,20.27
2022-12-18T13:57:26.387Z,20.47
2022-12-18T13:59:52.603Z,19.60
2022-12-18T14:02:24.675Z,22.90
2022-12-18T14:04:52.246Z,22.27
2022-12-18T14:07:31.392Z,23.20
2022-12-18T14:10:45.150Z,19.83
2022-12-18T14:13:10.402Z,23.10
2022-12-18T14:15:43.899Z,23.37
2022-12-18T14:18:25.674Z,21.57
2022-12-18T14:20:56.866Z,19.50
2022-12-18T14:23:40.240Z,23.60
2022-12-18T14:26:30.106Z,25.23
2022-12-18T14:29:03.843Z,22.40
2022-12-18T14:31:31.984Z,21.57
2022-12-18T14:33:58.354Z,22.07
2022-12-18T14:36:27.871Z,24.03
2022-12-18T14:38:59.287Z,26.07
2022-12-18T14:41:27.938Z,25.30
2022-12-18T14:43:54.845Z,22.80
2022-12-18T14:46:35.365Z,23.80
2022-12-18T14:49:29.481Z,23.47
2022-12-18T14:52:01.442Z,24.03
2022-12-18T14:54:30.459Z,26.37
2022-12-18T14:57:27.021Z,25.07
2022-12-18T14:59:53.305Z,21.63
2022-12-18T15:02:28.278Z,26.10
2022-12-18T15:05:18.387Z,25.47
2022-12-18T15:07:51.371Z,23.90
2022-12-18T15:10:31.148Z,24.63
2022-12-18T15:12:57.157Z,24.53
2022-12-18T15:15:39.463Z,27.47
2022-12-18T15:18:08.602Z,24.03
2022-12-18T15:20:48.732Z,25.27
2022-12-18T15:23:35.480Z,27.07
2022-12-18T15:26:09.891Z,26.97
2022-12-18T15:28:50.677Z,25.47
2022-12-18T15:31:18.021Z,27.00
2022-12-18T15:34:00.897Z,24.40
2022-12-18T15:36:27.197Z,27.87
2022-12-18T15:38:56.046Z,25.93
2022-12-18T15:41:33.965Z,27.67
2022-12-18T15:44:02.885Z,25.80
2022-12-18T15:46:30.945Z,26.43
2022-12-18T15:49:02.235Z,26.93
2022-12-18T15:51:37.191Z,26.30
2022-12-18T15:54:11.381Z,27.93
2022-12-18T15:56:56.029Z,26.73
2022-12-18T15:59:23.476Z,26.83
2022-12-18T16:01:53.409Z,28.23
2022-12-18T16:04:22.139Z,30.37
2022-12-18T16:09:36.386Z,26.20
2022-12-18T16:12:02.896Z,26.10
2022-12-18T16:14:30.771Z,28.20
2022-12-18T16:17:03.679Z,26.73
2022-12-18T16:19:30.230Z,27.73
2022-12-18T16:21:58.986Z,29.30
2022-12-18T16:24:29.314Z,30.57
2022-12-18T16:26:59.472Z,29.13
2022-12-18T16:29:28.338Z,31.70
2022-12-18T16:31:59.410Z,26.23
2022-12-18T16:34:35.827Z,29.53
2022-12-18T16:37:07.788Z,29.60
2022-12-18T16:39:35.900Z,31.70
2022-12-18T16:42:16.277Z,29.87
2022-12-18T16:44:43.843Z,29.17
2022-12-18T16:47:11.097Z,29.30
2022-12-18T16:49:41.078Z,36.50
2022-12-18T16:52:07.668Z,32.47
2022-12-18T16:54:35.738Z,32.23
2022-12-18T16:57:04.404Z,32.20
2022-12-18T16:59:31.101Z,33.57
2022-12-18T17:01:58.358Z,27.90
2022-12-18T17:04:24.594Z,32.27
2022-12-18T17:06:53.298Z,32.30
2022-12-18T17:09:27.591Z,33.50
2022-12-18T17:11:54.376Z,32.97
2022-12-18T17:14:24.131Z,35.77
2022-12-18T17:17:13.649Z,33.13
2022-12-18T17:19:37.845Z,35.93
2022-12-18T17:22:04.224Z,33.83
2022-12-18T17:24:34.840Z,35.57
2022-12-18T17:27:02.186Z,33.40
2022-12-18T17:29:28.289Z,35.77
2022-12-18T17:31:54.379Z,34.57
2022-12-18T17:34:21.354Z,37.63
2022-12-18T17:36:47.465Z,35.23
2022-12-18T17:39:19.608Z,33.07
2022-12-18T17:41:46.826Z,35.97
2022-12-18T17:44:12.958Z,38.17
2022-12-18T17:46:40.551Z,37.07
2022-12-18T17:49:06.703Z,33.33
2022-12-18T17:51:33.159Z,36.20
2022-12-18T17:53:59.630Z,33.77
2022-12-18T17:56:26.084Z,31.70
2022-12-18T17:58:52.732Z,33.03
2022-12-18T18:01:23.261Z,35.23
2022-12-18T18:03:53.539Z,33.33
2022-12-18T18:06:20.481Z,32.90
2022-12-18T18:08:46.589Z,38.40
2022-12-18T18:11:36.587Z,36.40
2022-12-18T18:14:10.191Z,34.43
2022-12-18T18:16:50.044Z,32.77
2022-12-18T18:19:21.518Z,31.73
2022-12-18T18:21:51.308Z,36.40
2022-12-18T18:24:25.039Z,39.17
2022-12-18T18:26:51.678Z,34.27
2022-12-18T18:29:26.692Z,34.33
2022-12-18T18:31:53.510Z,33.53
2022-12-18T18:34:29.833Z,37.23
2022-12-18T18:36:56.238Z,33.17
2022-12-18T18:39:22.815Z,35.10
2022-12-18T18:41:49.156Z,37.63
2022-12-18T18:44:20.554Z,32.93
2022-12-18T18:46:52.479Z,36.07
2022-12-18T18:49:20.996Z,32.27
2022-12-18T18:51:50.299Z,35.43
2022-12-18T18:54:16.435Z,36.60
2022-12-18T18:57:18.683Z,32.97
2022-12-18T18:59:31.568Z,36.67
2022-12-18T19:01:59.877Z,39.20
2022-12-18T19:04:31.070Z,34.40
2022-12-18T19:06:57.149Z,31.37
2022-12-18T19:09:23.353Z,35.73
2022-12-18T19:12:08.371Z,34.33
2022-12-18T19:14:34.485Z,41.03
2022-12-18T19:17:00.825Z,43.30
2022-12-18T19:19:27.655Z,38.23
2022-12-18T19:21:53.766Z,33.57
2022-12-18T19:24:22.353Z,33.80
2022-12-18T19:26:48.682Z,32.23
2022-12-18T19:29:15.155Z,34.90
2022-12-18T19:31:41.476Z,29.60
2022-12-18T19:34:08.745Z,36.53
2022-12-18T19:36:38.106Z,33.57
2022-12-18T19:39:17.227Z,31.97
2022-12-18T19:41:44.361Z,31.93
2022-12-18T19:44:14.839Z,34.20
2022-12-18T19:46:42.374Z,47.70
2022-12-18T19:49:10.556Z,36.87
2022-12-18T19:51:37.767Z,35.97
2022-12-18T19:54:04.330Z,31.60
2022-12-18T19:56:34.015Z,38.37
2022-12-18T19:59:01.367Z,31.97
2022-12-18T20:01:29.550Z,51.23
2022-12-18T20:03:57.623Z,45.70
2022-12-18T20:06:45.970Z,42.57
2022-12-18T20:09:12.137Z,36.80
2022-12-18T20:11:41.537Z,40.13
2022-12-18T20:14:10.151Z,31.23
2022-12-18T20:16:36.745Z,36.60
2022-12-18T20:19:04.502Z,36.07
2022-12-18T20:21:31.096Z,35.47
2022-12-18T20:23:59.192Z,34.33
2022-12-18T20:26:26.261Z,35.20
2022-12-18T20:28:54.019Z,44.83
2022-12-18T20:31:20.282Z,41.60
2022-12-18T20:33:47.707Z,32.30
2022-12-18T20:36:22.595Z,34.83
2022-12-18T20:38:53.142Z,39.93
2022-12-18T20:41:23.563Z,37.27
2022-12-18T20:43:50.287Z,49.83
2022-12-18T20:46:17.341Z,38.37
2022-12-18T20:48:44.309Z,36.63
2022-12-18T20:51:14.863Z,47.50
2022-12-18T20:53:42.652Z,39.97
2022-12-18T20:56:21.306Z,56.80
2022-12-18T20:58:49.616Z,35.30
2022-12-18T21:01:19.954Z,38.93
2022-12-18T21:03:47.909Z,34.80
2022-12-18T21:06:17.402Z,38.63
2022-12-18T21:08:44.236Z,31.90
2022-12-18T21:11:37.793Z,30.60
2022-12-18T21:14:23.159Z,34.13
2022-12-18T21:16:51.022Z,32.17
2022-12-18T21:19:24.631Z,33.10
2022-12-18T21:21:53.979Z,32.73
2022-12-18T21:24:20.980Z,37.70
2022-12-18T21:26:48.477Z,30.97
2022-12-18T21:29:22.001Z,32.97
2022-12-18T21:31:49.469Z,31.40
2022-12-18T21:34:19.280Z,33.60
2022-12-18T21:36:45.819Z,28.23
2022-12-18T21:39:14.231Z,34.23
2022-12-18T21:41:59.425Z,30.93
2022-12-18T21:44:25.772Z,28.70
2022-12-18T21:46:58.218Z,31.10
2022-12-18T21:49:27.709Z,32.47
2022-12-18T21:51:56.895Z,32.90
2022-12-18T21:54:24.659Z,35.10
2022-12-18T21:57:05.926Z,35.43
2022-12-18T21:59:40.794Z,34.20
2022-12-18T22:02:15.361Z,29.60
2022-12-18T22:04:43.664Z,32.83
2022-12-18T22:07:10.799Z,29.33
2022-12-18T22:09:38.479Z,32.03
2022-12-18T22:12:05.483Z,38.53
2022-12-18T22:14:31.777Z,35.57
2022-12-18T22:16:58.021Z,34.57
2022-12-18T22:19:24.789Z,29.23
2022-12-18T22:21:51.163Z,36.93
2022-12-18T22:24:23.645Z,36.20
2022-12-18T22:27:01.711Z,34.10
2022-12-18T22:29:47.265Z,32.53
2022-12-18T22:32:16.219Z,32.83
2022-12-18T22:34:43.257Z,36.10
2022-12-18T22:37:11.577Z,37.40
2022-12-18T22:39:37.883Z,32.70
2022-12-18T22:42:04.350Z,34.57
2022-12-18T22:44:30.594Z,31.03
2022-12-18T22:47:05.784Z,34.33
2022-12-18T22:49:34.723Z,38.77
2022-12-18T22:52:05.764Z,34.57
2022-12-18T22:54:31.847Z,34.40
2022-12-18T22:56:57.992Z,35.10
2022-12-18T22:59:24.594Z,33.63
2022-12-18T23:01:57.070Z,34.17
2022-12-18T23:04:27.877Z,33.10
2022-12-18T23:06:57.298Z,33.90
2022-12-18T23:09:23.828Z,36.27
2022-12-18T23:11:50.505Z,35.13
2022-12-18T23:14:16.603Z,32.67
2022-12-18T23:16:42.943Z,31.53
2022-12-18T23:19:11.668Z,34.47
2022-12-18T23:21:38.577Z,37.30
2022-12-18T23:24:05.446Z,29.60
2022-12-18T23:26:31.667Z,34.13
2022-12-18T23:28:57.919Z,37.13
2022-12-18T23:31:29.120Z,36.73
2022-12-18T23:33:57.541Z,32.70
2022-12-18T23:36:24.851Z,34.17
2022-12-18T23:38:54.632Z,34.47
2022-12-18T23:41:24.833Z,32.60
2022-12-18T23:43:52.779Z,31.90
2022-12-18T23:46:23.224Z,32.33
2022-12-18T23:48:50.400Z,35.47
2022-12-18T23:51:22.936Z,30.97
2022-12-18T23:53:50.020Z,33.07
2022-12-18T23:56:16.122Z,30.83
2022-12-18T23:58:43.617Z,34.17
